This is the latest recevied weather packets stored in our database for station/object KI5RAB. If no packets are shown the sender has not sent any weather packets the latest 10 day(s).
| Time | Temp. | Humidity | Pressure | Rain* | Wind** | Luminosity | Snow |
|---|---|---|---|---|---|---|---|
| 1777922824 | 27.78° C | 62% | 1015.9 hPa | 0 mm | - | 236 W/m² | - |
| 1777922522 | 27.22° C | 61% | 1015.7 hPa | 0 mm | - | 365 W/m² | - |
| 1777922220 | 26.67° C | 63% | 1015.9 hPa | 0 mm | - | 423 W/m² | - |
| 1777921916 | 27.22° C | 62% | 1015.8 hPa | 0 mm | - | 243 W/m² | - |
| 1777921612 | 27.78° C | 61% | 1015.7 hPa | 0 mm | - | 619 W/m² | - |
| 1777921309 | 26.67° C | 62% | 1016 hPa | 0 mm | - | 813 W/m² | - |
| 1777921005 | 26.11° C | 65% | 1016 hPa | 0 mm | - | 313 W/m² | - |
| 1777920702 | 26.67° C | 64% | 1016.1 hPa | 0 mm | - | 200 W/m² | - |
| 1777920398 | 26.67° C | 62% | 1015.9 hPa | 0 mm | - | 709 W/m² | - |
| 1777920093 | 26.67° C | 64% | 1016.1 hPa | 0 mm | - | 298 W/m² | - |
| 1777919790 | 26.67° C | 63% | 1016.3 hPa | 0 mm | - | 479 W/m² | - |
| 1777919488 | 27.22° C | 62% | 1016.6 hPa | 0 mm | - | 349 W/m² | - |
| 1777919185 | 27.22° C | 60% | 1016.4 hPa | 0 mm | - | 854 W/m² | - |
| 1777918883 | 26.67° C | 63% | 1016.3 hPa | 0 mm | - | 350 W/m² | - |
| 1777918580 | 26.67° C | 62% | 1016.4 hPa | 0 mm | - | 922 W/m² | - |
| 1777918277 | 26.67° C | 63% | 1016.6 hPa | 0 mm | - | 503 W/m² | - |
| 1777917977 | 26.67° C | 64% | 1016.7 hPa | 0 mm | - | 864 W/m² | - |
| 1777917675 | 26.11° C | 64% | 1016.5 hPa | 0 mm | - | 309 W/m² | - |
| 1777917372 | 26.67° C | 65% | 1016.7 hPa | 0 mm | - | 538 W/m² | - |
| 1777917068 | 26.67° C | 65% | 1016.6 hPa | 0 mm | - | 458 W/m² | - |
| 1777916767 | 26.67° C | 64% | 1016.9 hPa | 0 mm | - | 735 W/m² | - |
| 1777916463 | 26.67° C | 64% | 1016.7 hPa | 0 mm | - | 809 W/m² | - |
| 1777916160 | 26.11° C | 66% | 1017.2 hPa | 0 mm | - | 783 W/m² | - |
| 1777915858 | 26.67° C | 64% | 1017.1 hPa | 0 mm | - | 769 W/m² | - |
| 1777915553 | 26.11° C | 64% | 1017 hPa | 0 mm | - | 742 W/m² | - |
* Rain latest hour (hover to see other rain measurements)
** Current wind speed in m/s (hover to see current wind gust speed)